5 day graph

You are here

Error message

  • Notice: Trying to access array offset on value of type int in DrupalRequestSanitizer::stripDangerousValues() (line 102 of /home/twolittl/public_html/cms/includes/request-sanitizer.inc).
  • Notice: Trying to access array offset on value of type int in DrupalRequestSanitizer::stripDangerousValues() (line 102 of /home/twolittl/public_html/cms/includes/request-sanitizer.inc).
  • Notice: Trying to access array offset on value of type int in DrupalRequestSanitizer::stripDangerousValues() (line 102 of /home/twolittl/public_html/cms/includes/request-sanitizer.inc).
  • Notice: Trying to access array offset on value of type int in DrupalRequestSanitizer::stripDangerousValues() (line 102 of /home/twolittl/public_html/cms/includes/request-sanitizer.inc).
  • Notice: Trying to access array offset on value of type int in DrupalRequestSanitizer::stripDangerousValues() (line 102 of /home/twolittl/public_html/cms/includes/request-sanitizer.inc).
  • Notice: Trying to access array offset on value of type int in DrupalRequestSanitizer::stripDangerousValues() (line 102 of /home/twolittl/public_html/cms/includes/request-sanitizer.inc).
  • Notice: Trying to access array offset on value of type int in DrupalRequestSanitizer::stripDangerousValues() (line 102 of /home/twolittl/public_html/cms/includes/request-sanitizer.inc).
  • Notice: Trying to access array offset on value of type int in DrupalRequestSanitizer::stripDangerousValues() (line 102 of /home/twolittl/public_html/cms/includes/request-sanitizer.inc).
  • Deprecated function: Function get_magic_quotes_gpc() is deprecated in phpMyEdit->get_cgi_var() (line 1773 of /home/twolittl/public_html/phpMyEdit.class.php).
  • Deprecated function: implode(): Passing glue string after array is deprecated. Swap the parameters in drupal_get_feeds() (line 394 of /home/twolittl/public_html/cms/includes/common.inc).

Hive Data

Page: 1 of 16645  Records: 998690

Row Date Time Hive Temp Hive Humidity Outside Temp Outside Humidity Bottom Board Temp Outside Wall Temp Electronics Temp Light Levels inHG Fan Heat Cover Notes
Clear Sorted By: Outside Wall Temp ascending, Outside Humidity ascending, Row descending
View 382786 Mar 1 2015 3:33:15pm 76.82 53 55.4 37 56.75 -196.6 75.2 221 29.31 0 0 0 NA
View 382783 Mar 1 2015 3:30:11pm 77 52 55.58 37 56.75 -196.6 75.2 220 29.31 0 0 0 NA
View 382782 Mar 1 2015 3:29:10pm 77 53 55.76 37 56.75 -196.6 75.2 221 29.31 0 0 0 NA
View 382781 Mar 1 2015 3:28:09pm 76.82 54 55.76 37 56.75 -196.6 75.2 220 29.31 0 0 0 NA
View 382780 Mar 1 2015 3:27:07pm 76.82 57 55.76 37 56.75 -196.6 75.2 221 29.31 0 0 0 NA
View 382779 Mar 1 2015 3:26:08pm 76.82 56 55.94 37 56.75 -196.6 75.2 220 29.31 0 0 0 NA
View 382773 Mar 1 2015 3:20:00pm 76.46 51 56.12 37 56.3 -196.6 75.2 220 29.31 0 0 0 NA
View 382770 Mar 1 2015 3:16:58pm 76.64 53 55.94 37 56.3 -196.6 75.2 220 29.31 0 0 0 NA
View 382750 Mar 1 2015 2:56:35pm 76.28 51 55.58 37 55.85 -196.6 75.2 221 29.33 0 0 0 NA
View 382748 Mar 1 2015 2:54:32pm 76.28 53 55.76 37 55.85 -196.6 75.2 221 29.32 0 0 0 NA
View 382744 Mar 1 2015 2:50:29pm 76.28 51 56.12 37 55.85 -196.6 75.2 221 29.33 0 0 0 NA
View 382802 Mar 1 2015 3:49:33pm 77 52 55.76 38 56.75 -196.6 77 220 29.3 0 0 0 NA
View 382801 Mar 1 2015 3:48:31pm 77 53 55.76 38 56.75 -196.6 77 220 29.3 0 0 0 NA
View 382800 Mar 1 2015 3:47:30pm 77 53 55.76 38 56.75 -196.6 77 220 29.3 0 0 0 NA
View 382799 Mar 1 2015 3:46:29pm 77 53 55.58 38 56.75 -196.6 77 220 29.3 0 0 0 NA
View 382798 Mar 1 2015 3:45:28pm 77 52 55.4 38 56.75 -196.6 77 221 29.3 0 0 0 NA
View 382797 Mar 1 2015 3:44:26pm 77 52 55.4 38 56.75 -196.6 75.2 220 29.3 0 0 0 NA
View 382796 Mar 1 2015 3:43:27pm 77 51 55.4 38 56.75 -196.6 77 220 29.31 0 0 0 NA
View 382795 Mar 1 2015 3:42:25pm 77 52 55.4 38 56.75 -196.6 75.2 221 29.31 0 0 0 NA
View 382792 Mar 1 2015 3:39:21pm 77 53 55.4 38 56.75 -196.6 77 220 29.31 0 0 0 NA
View 382790 Mar 1 2015 3:37:19pm 77 55 55.58 38 56.75 -196.6 77 221 29.3 0 0 0 NA
View 382789 Mar 1 2015 3:36:18pm 77 53 55.4 38 56.75 -196.6 77 221 29.31 0 0 0 NA
View 382788 Mar 1 2015 3:35:16pm 77 52 55.58 38 56.75 -196.6 77 220 29.31 0 0 0 NA
View 382787 Mar 1 2015 3:34:16pm 77 55 55.58 38 56.75 -196.6 77 220 29.31 0 0 0 NA
View 382785 Mar 1 2015 3:32:14pm 77 51 55.58 38 56.75 -196.6 75.2 221 29.31 0 0 0 NA
View 382784 Mar 1 2015 3:31:13pm 77 53 55.58 38 56.75 -196.6 75.2 220 29.31 0 0 0 NA
View 382778 Mar 1 2015 3:25:06pm 76.64 52 55.94 38 56.75 -196.6 75.2 220 29.31 0 0 0 NA
View 382777 Mar 1 2015 3:24:05pm 76.64 53 56.12 38 56.75 -196.6 75.2 220 29.31 0 0 0 NA
View 382776 Mar 1 2015 3:23:04pm 76.64 54 56.12 38 56.75 -196.6 75.2 221 29.32 0 0 0 NA
View 382774 Mar 1 2015 3:21:01pm 76.64 53 56.12 38 56.3 -196.6 75.2 221 29.32 0 0 0 NA
View 382772 Mar 1 2015 3:19:00pm 76.64 50 56.12 38 56.3 -196.6 75.2 220 29.31 0 0 0 NA
View 382771 Mar 1 2015 3:17:59pm 76.64 52 56.12 38 56.3 -196.6 75.2 221 29.32 0 0 0 NA
View 382769 Mar 1 2015 3:15:56pm 76.64 54 56.12 38 56.3 -196.6 75.2 221 29.32 0 0 0 NA
View 382768 Mar 1 2015 3:14:55pm 76.46 56 56.12 38 56.3 -196.6 75.2 221 29.32 0 0 0 NA
View 382767 Mar 1 2015 3:13:54pm 76.46 54 56.12 38 56.3 -196.6 75.2 221 29.31 0 0 0 NA
View 382766 Mar 1 2015 3:12:52pm 76.46 53 56.12 38 56.3 -196.6 75.2 221 29.32 0 0 0 NA
View 382765 Mar 1 2015 3:11:51pm 76.46 52 56.12 38 56.3 -196.6 75.2 220 29.32 0 0 0 NA
View 382764 Mar 1 2015 3:10:51pm 76.28 52 56.12 38 56.3 -196.6 75.2 221 29.32 0 0 0 NA
View 382763 Mar 1 2015 3:09:50pm 76.46 52 55.94 38 56.3 -196.6 75.2 221 29.32 0 0 0 NA
View 382762 Mar 1 2015 3:08:49pm 76.28 52 55.94 38 56.3 -196.6 75.2 221 29.32 0 0 0 NA
View 382758 Mar 1 2015 3:04:44pm 76.46 53 55.76 38 56.3 -196.6 75.2 221 29.32 0 0 0 NA
View 382757 Mar 1 2015 3:03:42pm 76.46 53 55.58 38 56.3 -196.6 75.2 221 29.32 0 0 0 NA
View 382756 Mar 1 2015 3:02:41pm 76.46 53 55.58 38 56.3 -196.6 75.2 221 29.33 0 0 0 NA
View 382755 Mar 1 2015 3:01:40pm 76.46 54 55.58 38 56.3 -196.6 75.2 221 29.32 0 0 0 NA
View 382754 Mar 1 2015 3:00:39pm 76.46 54 55.58 38 55.85 -196.6 75.2 220 29.32 0 0 0 NA
View 382753 Mar 1 2015 2:59:39pm 76.28 55 55.58 38 55.85 -196.6 75.2 221 29.32 0 0 0 NA
View 382751 Mar 1 2015 2:57:36pm 76.28 52 55.58 38 55.85 -196.6 75.2 221 29.32 0 0 0 NA
View 382749 Mar 1 2015 2:55:34pm 76.28 53 55.76 38 55.85 -196.6 75.2 221 29.33 0 0 0 NA
View 382747 Mar 1 2015 2:53:31pm 76.28 52 55.94 38 55.85 -196.6 75.2 221 29.33 0 0 0 NA
View 382746 Mar 1 2015 2:52:30pm 76.28 51 56.12 38 55.85 -196.6 75.2 221 29.33 0 0 0 NA
View 382745 Mar 1 2015 2:51:30pm 76.28 50 56.12 38 55.85 -196.6 75.2 221 29.33 0 0 0 NA
View 382743 Mar 1 2015 2:49:27pm 76.28 53 56.3 38 55.85 -196.6 75.2 221 29.33 0 0 0 NA
View 382742 Mar 1 2015 2:48:26pm 76.28 53 56.3 38 55.85 -196.6 75.2 221 29.33 0 0 0 NA
View 382741 Mar 1 2015 2:47:25pm 76.28 54 56.3 38 55.85 -196.6 75.2 221 29.33 0 0 0 NA
View 382740 Mar 1 2015 2:46:24pm 76.1 56 56.48 38 55.85 -196.6 75.2 220 29.33 0 0 0 NA
View 382730 Mar 1 2015 2:36:12pm 76.1 53 56.12 38 55.4 -196.6 75.2 221 29.33 0 0 0 NA
View 382703 Mar 1 2015 2:08:44pm 75.2 51 57.56 38 54.5 -196.6 75.2 222 29.34 0 0 0 NA
View 382701 Mar 1 2015 2:06:41pm 75.02 51 57.92 38 54.5 -196.6 75.2 223 29.34 0 0 0 NA
View 382806 Mar 1 2015 3:53:36pm 77 50 55.94 39 56.75 -196.6 77 219 29.3 0 0 0 NA
View 382805 Mar 1 2015 3:52:35pm 77.18 51 55.94 39 56.75 -196.6 77 220 29.3 0 0 0 NA